sensor_id;sensor_type;location;lat;lon;timestamp;temperature;humidity
24436;DHT22;12616;52.470;13.436;2023-05-29T00:00:02;15.20;99.90
24436;DHT22;12616;52.470;13.436;2023-05-29T00:02:31;14.80;1.00
24436;DHT22;12616;52.470;13.436;2023-05-29T00:04:58;15.20;99.90
24436;DHT22;12616;52.470;13.436;2023-05-29T00:07:28;15.10;99.90
24436;DHT22;12616;52.470;13.436;2023-05-29T00:09:55;15.20;99.90
24436;DHT22;12616;52.470;13.436;2023-05-29T00:12:22;15.10;99.90
24436;DHT22;12616;52.470;13.436;2023-05-29T00:14:49;15.10;99.90
24436;DHT22;12616;52.470;13.436;2023-05-29T00:17:17;15.10;99.90
24436;DHT22;12616;52.470;13.436;2023-05-29T00:19:46;15.00;99.90
24436;DHT22;12616;52.470;13.436;2023-05-29T00:22:12;14.90;99.90
24436;DHT22;12616;52.470;13.436;2023-05-29T00:24:39;14.80;99.90
24436;DHT22;12616;52.470;13.436;2023-05-29T00:27:06;14.80;99.90
24436;DHT22;12616;52.470;13.436;2023-05-29T00:29:34;14.80;99.90
24436;DHT22;12616;52.470;13.436;2023-05-29T00:32:01;14.70;99.90
24436;DHT22;12616;52.470;13.436;2023-05-29T00:34:29;14.70;99.90
24436;DHT22;12616;52.470;13.436;2023-05-29T00:36:56;14.70;99.90
24436;DHT22;12616;52.470;13.436;2023-05-29T00:39:23;14.60;99.90
24436;DHT22;12616;52.470;13.436;2023-05-29T00:41:50;14.70;99.90
24436;DHT22;12616;52.470;13.436;2023-05-29T00:44:17;14.80;99.90
24436;DHT22;12616;52.470;13.436;2023-05-29T00:46:44;14.80;99.90
24436;DHT22;12616;52.470;13.436;2023-05-29T00:49:12;14.70;99.90
24436;DHT22;12616;52.470;13.436;2023-05-29T00:51:40;14.80;99.90
24436;DHT22;12616;52.470;13.436;2023-05-29T00:54:12;14.70;99.90
24436;DHT22;12616;52.470;13.436;2023-05-29T00:56:39;14.70;99.90
24436;DHT22;12616;52.470;13.436;2023-05-29T00:59:09;14.60;99.90
24436;DHT22;12616;52.470;13.436;2023-05-29T01:01:36;14.60;99.90
24436;DHT22;12616;52.470;13.436;2023-05-29T01:04:03;14.60;99.90
24436;DHT22;12616;52.470;13.436;2023-05-29T01:06:32;14.60;99.90
24436;DHT22;12616;52.470;13.436;2023-05-29T01:09:00;14.60;99.90
24436;DHT22;12616;52.470;13.436;2023-05-29T01:11:44;14.50;99.90
24436;DHT22;12616;52.470;13.436;2023-05-29T01:14:29;14.50;99.90
24436;DHT22;12616;52.470;13.436;2023-05-29T01:17:06;14.50;99.90
24436;DHT22;12616;52.470;13.436;2023-05-29T01:20:00;14.50;99.90
24436;DHT22;12616;52.470;13.436;2023-05-29T01:22:40;14.50;99.90
24436;DHT22;12616;52.470;13.436;2023-05-29T01:25:15;14.50;99.90
24436;DHT22;12616;52.470;13.436;2023-05-29T01:27:48;14.60;99.90
24436;DHT22;12616;52.470;13.436;2023-05-29T01:30:16;14.50;99.90
24436;DHT22;12616;52.470;13.436;2023-05-29T01:32:43;14.50;99.90
24436;DHT22;12616;52.470;13.436;2023-05-29T01:35:11;14.50;99.90
24436;DHT22;12616;52.470;13.436;2023-05-29T01:37:38;14.50;1.00
24436;DHT22;12616;52.470;13.436;2023-05-29T01:40:05;14.40;99.90
24436;DHT22;12616;52.470;13.436;2023-05-29T01:42:33;14.40;99.90
24436;DHT22;12616;52.470;13.436;2023-05-29T01:45:01;14.40;99.90
24436;DHT22;12616;52.470;13.436;2023-05-29T01:47:29;14.40;99.90
24436;DHT22;12616;52.470;13.436;2023-05-29T01:49:57;14.40;99.90
24436;DHT22;12616;52.470;13.436;2023-05-29T01:52:24;14.30;99.90
24436;DHT22;12616;52.470;13.436;2023-05-29T01:54:51;14.30;99.90
24436;DHT22;12616;52.470;13.436;2023-05-29T01:57:18;14.30;99.90
24436;DHT22;12616;52.470;13.436;2023-05-29T01:59:45;14.30;99.90
24436;DHT22;12616;52.470;13.436;2023-05-29T02:02:14;14.20;99.90
24436;DHT22;12616;52.470;13.436;2023-05-29T02:04:41;14.20;99.90
24436;DHT22;12616;52.470;13.436;2023-05-29T02:07:08;14.20;99.90
24436;DHT22;12616;52.470;13.436;2023-05-29T02:09:37;14.20;99.90
24436;DHT22;12616;52.470;13.436;2023-05-29T02:12:05;14.10;99.90
24436;DHT22;12616;52.470;13.436;2023-05-29T02:14:32;14.10;99.90
24436;DHT22;12616;52.470;13.436;2023-05-29T02:16:59;14.10;99.90
24436;DHT22;12616;52.470;13.436;2023-05-29T02:19:28;14.00;99.90
24436;DHT22;12616;52.470;13.436;2023-05-29T02:21:55;14.00;99.90
24436;DHT22;12616;52.470;13.436;2023-05-29T02:24:22;14.10;99.90
24436;DHT22;12616;52.470;13.436;2023-05-29T02:26:49;14.00;99.90
24436;DHT22;12616;52.470;13.436;2023-05-29T02:29:17;14.00;99.90
24436;DHT22;12616;52.470;13.436;2023-05-29T02:31:44;14.00;99.90
24436;DHT22;12616;52.470;13.436;2023-05-29T02:34:10;14.00;99.90
24436;DHT22;12616;52.470;13.436;2023-05-29T02:36:38;13.90;99.90
24436;DHT22;12616;52.470;13.436;2023-05-29T02:39:05;13.90;99.90
24436;DHT22;12616;52.470;13.436;2023-05-29T02:41:32;13.90;99.90
24436;DHT22;12616;52.470;13.436;2023-05-29T02:43:59;13.80;99.90
24436;DHT22;12616;52.470;13.436;2023-05-29T02:46:26;13.80;99.90
24436;DHT22;12616;52.470;13.436;2023-05-29T02:48:52;13.80;99.90
24436;DHT22;12616;52.470;13.436;2023-05-29T02:51:19;13.80;99.90
24436;DHT22;12616;52.470;13.436;2023-05-29T02:53:47;13.80;99.90
24436;DHT22;12616;52.470;13.436;2023-05-29T02:56:15;13.80;99.90
24436;DHT22;12616;52.470;13.436;2023-05-29T02:58:42;13.80;99.90
24436;DHT22;12616;52.470;13.436;2023-05-29T03:01:09;13.90;99.90
24436;DHT22;12616;52.470;13.436;2023-05-29T03:03:36;13.80;99.90
24436;DHT22;12616;52.470;13.436;2023-05-29T03:06:03;13.70;99.90
24436;DHT22;12616;52.470;13.436;2023-05-29T03:08:31;13.60;99.90
24436;DHT22;12616;52.470;13.436;2023-05-29T03:11:00;13.70;99.90
24436;DHT22;12616;52.470;13.436;2023-05-29T03:13:28;13.60;99.90
24436;DHT22;12616;52.470;13.436;2023-05-29T03:15:55;13.60;99.90
24436;DHT22;12616;52.470;13.436;2023-05-29T03:18:22;13.60;99.90
24436;DHT22;12616;52.470;13.436;2023-05-29T03:20:49;13.60;99.90
24436;DHT22;12616;52.470;13.436;2023-05-29T03:23:16;13.60;99.90
24436;DHT22;12616;52.470;13.436;2023-05-29T03:25:43;13.60;99.90
24436;DHT22;12616;52.470;13.436;2023-05-29T03:28:11;13.60;99.90
24436;DHT22;12616;52.470;13.436;2023-05-29T03:30:38;13.60;99.90
24436;DHT22;12616;52.470;13.436;2023-05-29T03:33:04;13.50;99.90
24436;DHT22;12616;52.470;13.436;2023-05-29T03:35:32;13.50;1.00
24436;DHT22;12616;52.470;13.436;2023-05-29T03:37:59;13.60;99.90
24436;DHT22;12616;52.470;13.436;2023-05-29T03:40:26;13.50;99.90
24436;DHT22;12616;52.470;13.436;2023-05-29T03:42:53;13.50;99.90
24436;DHT22;12616;52.470;13.436;2023-05-29T03:45:21;13.50;1.00
24436;DHT22;12616;52.470;13.436;2023-05-29T03:47:48;14.00;1.00
24436;DHT22;12616;52.470;13.436;2023-05-29T03:50:15;13.60;99.90
24436;DHT22;12616;52.470;13.436;2023-05-29T03:52:42;13.50;99.90
24436;DHT22;12616;52.470;13.436;2023-05-29T03:55:09;13.40;99.90
24436;DHT22;12616;52.470;13.436;2023-05-29T03:57:38;13.50;1.00
24436;DHT22;12616;52.470;13.436;2023-05-29T04:00:07;13.40;99.90
24436;DHT22;12616;52.470;13.436;2023-05-29T04:02:36;13.40;99.90
24436;DHT22;12616;52.470;13.436;2023-05-29T04:05:04;13.50;99.90
24436;DHT22;12616;52.470;13.436;2023-05-29T04:07:31;13.50;99.90
24436;DHT22;12616;52.470;13.436;2023-05-29T04:09:58;13.40;99.90
24436;DHT22;12616;52.470;13.436;2023-05-29T04:12:25;13.40;99.90
24436;DHT22;12616;52.470;13.436;2023-05-29T04:14:52;13.40;1.00
24436;DHT22;12616;52.470;13.436;2023-05-29T04:17:19;13.50;99.90
24436;DHT22;12616;52.470;13.436;2023-05-29T04:19:47;13.60;99.90
24436;DHT22;12616;52.470;13.436;2023-05-29T04:22:14;13.60;99.90
24436;DHT22;12616;52.470;13.436;2023-05-29T04:24:41;13.60;99.90
24436;DHT22;12616;52.470;13.436;2023-05-29T04:27:08;13.60;99.90
24436;DHT22;12616;52.470;13.436;2023-05-29T04:29:38;13.70;99.90
24436;DHT22;12616;52.470;13.436;2023-05-29T04:32:06;13.70;99.90
24436;DHT22;12616;52.470;13.436;2023-05-29T04:34:34;13.80;99.90
24436;DHT22;12616;52.470;13.436;2023-05-29T04:37:02;14.00;99.90
24436;DHT22;12616;52.470;13.436;2023-05-29T04:39:29;14.00;99.90
24436;DHT22;12616;52.470;13.436;2023-05-29T04:41:56;14.10;99.90
24436;DHT22;12616;52.470;13.436;2023-05-29T04:44:24;14.30;1.00
24436;DHT22;12616;52.470;13.436;2023-05-29T04:46:52;14.30;99.90
24436;DHT22;12616;52.470;13.436;2023-05-29T04:49:19;14.30;99.90
24436;DHT22;12616;52.470;13.436;2023-05-29T04:51:46;14.20;99.90
24436;DHT22;12616;52.470;13.436;2023-05-29T04:54:14;14.40;99.90
24436;DHT22;12616;52.470;13.436;2023-05-29T04:56:42;14.40;99.90
24436;DHT22;12616;52.470;13.436;2023-05-29T04:59:08;14.40;99.90
24436;DHT22;12616;52.470;13.436;2023-05-29T05:01:35;14.40;99.90
24436;DHT22;12616;52.470;13.436;2023-05-29T05:04:02;14.50;99.90
24436;DHT22;12616;52.470;13.436;2023-05-29T05:06:29;14.50;99.90
24436;DHT22;12616;52.470;13.436;2023-05-29T05:08:56;14.50;99.90
24436;DHT22;12616;52.470;13.436;2023-05-29T05:11:24;14.60;99.90
24436;DHT22;12616;52.470;13.436;2023-05-29T05:13:51;14.70;99.90
24436;DHT22;12616;52.470;13.436;2023-05-29T05:16:18;14.70;99.90
24436;DHT22;12616;52.470;13.436;2023-05-29T05:18:45;14.70;99.90
24436;DHT22;12616;52.470;13.436;2023-05-29T05:21:11;14.60;99.90
24436;DHT22;12616;52.470;13.436;2023-05-29T05:23:40;14.70;99.90
24436;DHT22;12616;52.470;13.436;2023-05-29T05:26:07;14.90;99.90
24436;DHT22;12616;52.470;13.436;2023-05-29T05:28:35;14.80;99.90
24436;DHT22;12616;52.470;13.436;2023-05-29T05:31:02;14.90;99.90
24436;DHT22;12616;52.470;13.436;2023-05-29T05:33:28;14.90;99.90
24436;DHT22;12616;52.470;13.436;2023-05-29T05:35:55;15.10;99.90
24436;DHT22;12616;52.470;13.436;2023-05-29T05:38:22;15.10;99.90
24436;DHT22;12616;52.470;13.436;2023-05-29T05:40:49;15.00;1.00
24436;DHT22;12616;52.470;13.436;2023-05-29T05:43:15;15.10;99.90
24436;DHT22;12616;52.470;13.436;2023-05-29T05:45:44;15.30;99.90
24436;DHT22;12616;52.470;13.436;2023-05-29T05:48:11;15.20;99.90
24436;DHT22;12616;52.470;13.436;2023-05-29T05:50:38;15.20;99.90
24436;DHT22;12616;52.470;13.436;2023-05-29T05:53:05;15.30;99.90
24436;DHT22;12616;52.470;13.436;2023-05-29T05:55:32;15.50;99.90
24436;DHT22;12616;52.470;13.436;2023-05-29T05:57:59;15.70;99.90
24436;DHT22;12616;52.470;13.436;2023-05-29T06:00:25;15.60;99.90
24436;DHT22;12616;52.470;13.436;2023-05-29T06:02:54;15.50;99.90
24436;DHT22;12616;52.470;13.436;2023-05-29T06:05:22;14.90;1.00
24436;DHT22;12616;52.470;13.436;2023-05-29T06:07:48;15.70;1.00
24436;DHT22;12616;52.470;13.436;2023-05-29T06:10:15;15.70;99.90
24436;DHT22;12616;52.470;13.436;2023-05-29T06:12:42;15.70;99.90
24436;DHT22;12616;52.470;13.436;2023-05-29T06:15:10;15.70;99.90
24436;DHT22;12616;52.470;13.436;2023-05-29T06:17:38;15.70;99.90
24436;DHT22;12616;52.470;13.436;2023-05-29T06:20:07;16.00;99.90
24436;DHT22;12616;52.470;13.436;2023-05-29T06:22:35;16.00;99.90
24436;DHT22;12616;52.470;13.436;2023-05-29T06:25:03;16.10;99.90
24436;DHT22;12616;52.470;13.436;2023-05-29T06:27:30;16.10;1.00
24436;DHT22;12616;52.470;13.436;2023-05-29T06:29:57;16.30;99.90
24436;DHT22;12616;52.470;13.436;2023-05-29T06:32:23;16.30;99.90
24436;DHT22;12616;52.470;13.436;2023-05-29T06:34:51;16.30;99.90
24436;DHT22;12616;52.470;13.436;2023-05-29T06:37:19;16.30;99.90
24436;DHT22;12616;52.470;13.436;2023-05-29T06:39:46;16.40;99.90
24436;DHT22;12616;52.470;13.436;2023-05-29T06:42:13;16.30;99.90
24436;DHT22;12616;52.470;13.436;2023-05-29T06:44:39;16.30;99.90
24436;DHT22;12616;52.470;13.436;2023-05-29T06:47:06;16.40;99.90
24436;DHT22;12616;52.470;13.436;2023-05-29T06:49:36;16.50;99.90
24436;DHT22;12616;52.470;13.436;2023-05-29T06:52:02;16.50;99.90
24436;DHT22;12616;52.470;13.436;2023-05-29T06:54:31;16.50;99.90
24436;DHT22;12616;52.470;13.436;2023-05-29T06:56:57;16.60;99.90
24436;DHT22;12616;52.470;13.436;2023-05-29T06:59:24;16.70;99.90
24436;DHT22;12616;52.470;13.436;2023-05-29T07:01:51;16.80;99.90
24436;DHT22;12616;52.470;13.436;2023-05-29T07:04:18;16.80;99.90
24436;DHT22;12616;52.470;13.436;2023-05-29T07:06:44;16.90;99.90
24436;DHT22;12616;52.470;13.436;2023-05-29T07:09:12;16.90;99.90
24436;DHT22;12616;52.470;13.436;2023-05-29T07:11:40;16.90;99.90
24436;DHT22;12616;52.470;13.436;2023-05-29T07:14:07;16.90;99.90
24436;DHT22;12616;52.470;13.436;2023-05-29T07:16:33;17.10;99.90
24436;DHT22;12616;52.470;13.436;2023-05-29T07:19:00;17.20;99.90
24436;DHT22;12616;52.470;13.436;2023-05-29T07:21:27;17.20;99.90
24436;DHT22;12616;52.470;13.436;2023-05-29T07:23:54;17.30;99.90
24436;DHT22;12616;52.470;13.436;2023-05-29T07:26:20;17.40;99.90
24436;DHT22;12616;52.470;13.436;2023-05-29T07:28:49;17.40;99.90
24436;DHT22;12616;52.470;13.436;2023-05-29T07:31:16;17.50;99.90
24436;DHT22;12616;52.470;13.436;2023-05-29T07:33:43;17.50;99.90
24436;DHT22;12616;52.470;13.436;2023-05-29T07:36:10;17.60;99.90
24436;DHT22;12616;52.470;13.436;2023-05-29T07:38:38;17.50;99.90
24436;DHT22;12616;52.470;13.436;2023-05-29T07:41:04;17.50;99.90
24436;DHT22;12616;52.470;13.436;2023-05-29T07:43:31;17.40;99.90
24436;DHT22;12616;52.470;13.436;2023-05-29T07:45:59;17.40;99.90
24436;DHT22;12616;52.470;13.436;2023-05-29T07:48:26;17.60;99.90
24436;DHT22;12616;52.470;13.436;2023-05-29T07:50:53;17.60;99.90
24436;DHT22;12616;52.470;13.436;2023-05-29T07:53:20;17.70;99.90
24436;DHT22;12616;52.470;13.436;2023-05-29T07:55:47;17.60;1.00
24436;DHT22;12616;52.470;13.436;2023-05-29T07:58:14;17.90;99.90
24436;DHT22;12616;52.470;13.436;2023-05-29T08:00:43;17.90;99.90
24436;DHT22;12616;52.470;13.436;2023-05-29T08:03:11;18.10;99.90
24436;DHT22;12616;52.470;13.436;2023-05-29T08:05:38;18.50;99.90
24436;DHT22;12616;52.470;13.436;2023-05-29T08:08:05;18.20;99.90
24436;DHT22;12616;52.470;13.436;2023-05-29T08:10:32;18.00;1.00
24436;DHT22;12616;52.470;13.436;2023-05-29T08:12:58;18.00;99.90
24436;DHT22;12616;52.470;13.436;2023-05-29T08:15:25;18.60;99.90
24436;DHT22;12616;52.470;13.436;2023-05-29T08:17:52;18.00;1.00
24436;DHT22;12616;52.470;13.436;2023-05-29T08:20:20;18.30;99.90
24436;DHT22;12616;52.470;13.436;2023-05-29T08:22:47;18.50;99.90
24436;DHT22;12616;52.470;13.436;2023-05-29T08:25:14;18.40;99.90
24436;DHT22;12616;52.470;13.436;2023-05-29T08:27:40;18.30;1.00
24436;DHT22;12616;52.470;13.436;2023-05-29T08:30:08;18.40;99.90
24436;DHT22;12616;52.470;13.436;2023-05-29T08:32:35;18.10;99.90
24436;DHT22;12616;52.470;13.436;2023-05-29T08:35:02;18.00;99.90
24436;DHT22;12616;52.470;13.436;2023-05-29T08:37:31;18.20;99.90
24436;DHT22;12616;52.470;13.436;2023-05-29T08:39:58;18.30;99.90
24436;DHT22;12616;52.470;13.436;2023-05-29T08:42:29;18.40;99.90
24436;DHT22;12616;52.470;13.436;2023-05-29T08:45:02;18.50;99.90
24436;DHT22;12616;52.470;13.436;2023-05-29T08:47:33;18.60;99.90
24436;DHT22;12616;52.470;13.436;2023-05-29T08:50:01;18.60;99.90
24436;DHT22;12616;52.470;13.436;2023-05-29T08:52:34;18.60;99.90
24436;DHT22;12616;52.470;13.436;2023-05-29T08:55:02;18.50;99.90
24436;DHT22;12616;52.470;13.436;2023-05-29T08:57:29;18.50;99.90
24436;DHT22;12616;52.470;13.436;2023-05-29T08:59:57;18.50;99.90
24436;DHT22;12616;52.470;13.436;2023-05-29T09:02:24;18.50;99.90
24436;DHT22;12616;52.470;13.436;2023-05-29T09:04:52;18.50;99.90
24436;DHT22;12616;52.470;13.436;2023-05-29T09:07:20;18.80;99.90
24436;DHT22;12616;52.470;13.436;2023-05-29T09:09:49;18.70;99.90
24436;DHT22;12616;52.470;13.436;2023-05-29T09:12:16;18.70;1.00
24436;DHT22;12616;52.470;13.436;2023-05-29T09:14:44;19.10;99.90
24436;DHT22;12616;52.470;13.436;2023-05-29T09:17:12;19.00;99.90
24436;DHT22;12616;52.470;13.436;2023-05-29T09:19:41;19.00;99.90
24436;DHT22;12616;52.470;13.436;2023-05-29T09:22:08;19.50;1.00
24436;DHT22;12616;52.470;13.436;2023-05-29T09:24:39;19.10;99.90
24436;DHT22;12616;52.470;13.436;2023-05-29T09:27:10;19.20;99.90
24436;DHT22;12616;52.470;13.436;2023-05-29T09:29:38;18.80;1.00
24436;DHT22;12616;52.470;13.436;2023-05-29T09:32:07;19.50;1.00
24436;DHT22;12616;52.470;13.436;2023-05-29T09:34:35;19.40;99.90
24436;DHT22;12616;52.470;13.436;2023-05-29T09:37:06;19.30;99.90
24436;DHT22;12616;52.470;13.436;2023-05-29T09:39:44;19.40;99.90
24436;DHT22;12616;52.470;13.436;2023-05-29T09:42:12;19.40;1.00
24436;DHT22;12616;52.470;13.436;2023-05-29T09:44:40;19.50;99.90
24436;DHT22;12616;52.470;13.436;2023-05-29T09:47:07;19.10;1.00
24436;DHT22;12616;52.470;13.436;2023-05-29T09:52:04;19.70;99.90
24436;DHT22;12616;52.470;13.436;2023-05-29T09:54:35;19.90;99.90
24436;DHT22;12616;52.470;13.436;2023-05-29T09:57:03;19.90;99.90
24436;DHT22;12616;52.470;13.436;2023-05-29T09:59:33;19.80;99.90
24436;DHT22;12616;52.470;13.436;2023-05-29T10:02:02;20.20;1.00
24436;DHT22;12616;52.470;13.436;2023-05-29T10:04:31;19.70;99.90
24436;DHT22;12616;52.470;13.436;2023-05-29T10:07:03;19.60;99.90
24436;DHT22;12616;52.470;13.436;2023-05-29T10:09:31;19.60;99.90
24436;DHT22;12616;52.470;13.436;2023-05-29T10:14:29;19.40;99.90
24436;DHT22;12616;52.470;13.436;2023-05-29T10:17:06;19.50;99.90
24436;DHT22;12616;52.470;13.436;2023-05-29T10:19:36;19.60;99.90
24436;DHT22;12616;52.470;13.436;2023-05-29T10:22:04;20.00;99.90
24436;DHT22;12616;52.470;13.436;2023-05-29T10:24:33;19.70;99.90
24436;DHT22;12616;52.470;13.436;2023-05-29T10:27:05;19.80;99.90
24436;DHT22;12616;52.470;13.436;2023-05-29T10:29:36;19.40;1.00
24436;DHT22;12616;52.470;13.436;2023-05-29T10:32:20;19.70;99.90
24436;DHT22;12616;52.470;13.436;2023-05-29T10:34:54;19.30;99.90
24436;DHT22;12616;52.470;13.436;2023-05-29T10:37:32;19.70;99.90
24436;DHT22;12616;52.470;13.436;2023-05-29T10:40:05;19.70;99.90
24436;DHT22;12616;52.470;13.436;2023-05-29T10:42:45;19.50;1.00
24436;DHT22;12616;52.470;13.436;2023-05-29T10:48:39;19.40;99.90
24436;DHT22;12616;52.470;13.436;2023-05-29T10:51:07;19.30;99.90
24436;DHT22;12616;52.470;13.436;2023-05-29T10:56:09;19.60;99.90
24436;DHT22;12616;52.470;13.436;2023-05-29T10:58:41;19.80;99.90
24436;DHT22;12616;52.470;13.436;2023-05-29T11:01:08;19.90;99.90
24436;DHT22;12616;52.470;13.436;2023-05-29T11:03:35;20.20;99.90
24436;DHT22;12616;52.470;13.436;2023-05-29T11:06:18;20.50;99.90
24436;DHT22;12616;52.470;13.436;2023-05-29T11:08:47;20.40;99.90
24436;DHT22;12616;52.470;13.436;2023-05-29T11:11:14;20.40;99.90
24436;DHT22;12616;52.470;13.436;2023-05-29T11:13:42;19.70;99.90
24436;DHT22;12616;52.470;13.436;2023-05-29T11:16:21;20.00;99.90
24436;DHT22;12616;52.470;13.436;2023-05-29T11:19:04;20.00;99.90
24436;DHT22;12616;52.470;13.436;2023-05-29T11:21:34;19.90;99.90
24436;DHT22;12616;52.470;13.436;2023-05-29T11:24:06;20.10;99.90
24436;DHT22;12616;52.470;13.436;2023-05-29T11:26:33;20.20;99.90
24436;DHT22;12616;52.470;13.436;2023-05-29T11:29:03;20.30;99.90
24436;DHT22;12616;52.470;13.436;2023-05-29T11:31:32;20.60;99.90
24436;DHT22;12616;52.470;13.436;2023-05-29T11:34:01;20.60;99.90
24436;DHT22;12616;52.470;13.436;2023-05-29T11:36:32;20.70;99.90
24436;DHT22;12616;52.470;13.436;2023-05-29T11:39:00;21.00;1.00
24436;DHT22;12616;52.470;13.436;2023-05-29T11:41:29;20.70;99.90
24436;DHT22;12616;52.470;13.436;2023-05-29T11:43:57;20.90;99.90
24436;DHT22;12616;52.470;13.436;2023-05-29T11:53:50;21.10;99.90
24436;DHT22;12616;52.470;13.436;2023-05-29T11:56:23;21.10;99.90
24436;DHT22;12616;52.470;13.436;2023-05-29T11:58:51;21.00;99.90
24436;DHT22;12616;52.470;13.436;2023-05-29T12:03:49;21.00;99.90
24436;DHT22;12616;52.470;13.436;2023-05-29T12:06:16;21.10;99.90
24436;DHT22;12616;52.470;13.436;2023-05-29T12:08:58;21.00;99.90
24436;DHT22;12616;52.470;13.436;2023-05-29T12:13:57;20.70;99.90
24436;DHT22;12616;52.470;13.436;2023-05-29T12:16:25;20.50;1.00
24436;DHT22;12616;52.470;13.436;2023-05-29T12:18:53;21.00;99.90
24436;DHT22;12616;52.470;13.436;2023-05-29T12:21:23;20.90;99.90
24436;DHT22;12616;52.470;13.436;2023-05-29T12:23:54;20.60;99.90
24436;DHT22;12616;52.470;13.436;2023-05-29T12:26:23;20.50;99.90
24436;DHT22;12616;52.470;13.436;2023-05-29T12:28:51;20.40;99.90
24436;DHT22;12616;52.470;13.436;2023-05-29T12:31:28;20.40;99.90
24436;DHT22;12616;52.470;13.436;2023-05-29T12:33:59;20.40;99.90
24436;DHT22;12616;52.470;13.436;2023-05-29T12:36:27;20.90;1.00
24436;DHT22;12616;52.470;13.436;2023-05-29T12:38:54;20.30;1.00
24436;DHT22;12616;52.470;13.436;2023-05-29T12:41:28;20.70;99.90
24436;DHT22;12616;52.470;13.436;2023-05-29T12:43:56;21.20;1.00
24436;DHT22;12616;52.470;13.436;2023-05-29T12:48:53;21.50;1.00
24436;DHT22;12616;52.470;13.436;2023-05-29T12:51:25;21.50;99.90
24436;DHT22;12616;52.470;13.436;2023-05-29T12:53:52;21.60;99.90
24436;DHT22;12616;52.470;13.436;2023-05-29T12:56:21;21.20;1.00
24436;DHT22;12616;52.470;13.436;2023-05-29T12:58:51;21.30;1.00
24436;DHT22;12616;52.470;13.436;2023-05-29T13:01:18;21.50;99.90
24436;DHT22;12616;52.470;13.436;2023-05-29T13:03:46;21.50;99.90
24436;DHT22;12616;52.470;13.436;2023-05-29T13:06:15;21.60;1.00
24436;DHT22;12616;52.470;13.436;2023-05-29T13:08:42;21.30;99.90
24436;DHT22;12616;52.470;13.436;2023-05-29T13:11:09;21.40;99.90
24436;DHT22;12616;52.470;13.436;2023-05-29T13:13:36;21.30;99.90
24436;DHT22;12616;52.470;13.436;2023-05-29T13:16:04;21.00;1.00
24436;DHT22;12616;52.470;13.436;2023-05-29T13:20:59;20.80;1.00
24436;DHT22;12616;52.470;13.436;2023-05-29T13:23:26;21.00;99.90
24436;DHT22;12616;52.470;13.436;2023-05-29T13:25:53;21.10;99.90
24436;DHT22;12616;52.470;13.436;2023-05-29T13:28:20;20.90;1.00
24436;DHT22;12616;52.470;13.436;2023-05-29T13:30:47;21.60;99.90
24436;DHT22;12616;52.470;13.436;2023-05-29T13:33:15;21.20;1.00
24436;DHT22;12616;52.470;13.436;2023-05-29T13:35:42;21.40;99.90
24436;DHT22;12616;52.470;13.436;2023-05-29T13:40:38;21.10;99.90
24436;DHT22;12616;52.470;13.436;2023-05-29T13:43:05;21.20;99.90
24436;DHT22;12616;52.470;13.436;2023-05-29T13:45:32;21.20;99.90
24436;DHT22;12616;52.470;13.436;2023-05-29T13:47:59;21.10;99.90
24436;DHT22;12616;52.470;13.436;2023-05-29T13:50:27;21.20;99.90
24436;DHT22;12616;52.470;13.436;2023-05-29T13:52:54;21.30;99.90
24436;DHT22;12616;52.470;13.436;2023-05-29T13:55:21;21.30;99.90
24436;DHT22;12616;52.470;13.436;2023-05-29T14:00:16;20.90;1.00
24436;DHT22;12616;52.470;13.436;2023-05-29T14:05:11;21.10;99.90
24436;DHT22;12616;52.470;13.436;2023-05-29T14:07:39;20.90;1.00
24436;DHT22;12616;52.470;13.436;2023-05-29T14:10:07;20.90;1.00
24436;DHT22;12616;52.470;13.436;2023-05-29T14:12:34;21.10;99.90
24436;DHT22;12616;52.470;13.436;2023-05-29T14:17:40;20.80;99.90
24436;DHT22;12616;52.470;13.436;2023-05-29T14:27:46;20.70;99.90
24436;DHT22;12616;52.470;13.436;2023-05-29T14:30:17;20.80;99.90
24436;DHT22;12616;52.470;13.436;2023-05-29T14:33:38;20.60;99.90
24436;DHT22;12616;52.470;13.436;2023-05-29T14:36:29;21.40;99.90
24436;DHT22;12616;52.470;13.436;2023-05-29T14:41:28;20.60;99.90
24436;DHT22;12616;52.470;13.436;2023-05-29T14:44:01;20.70;99.90
24436;DHT22;12616;52.470;13.436;2023-05-29T14:51:31;21.20;99.90
24436;DHT22;12616;52.470;13.436;2023-05-29T14:58:56;21.60;1.00
24436;DHT22;12616;52.470;13.436;2023-05-29T15:01:24;21.60;99.90
24436;DHT22;12616;52.470;13.436;2023-05-29T15:03:51;21.70;99.90
24436;DHT22;12616;52.470;13.436;2023-05-29T15:06:18;21.70;99.90
24436;DHT22;12616;52.470;13.436;2023-05-29T15:08:45;21.50;1.00
24436;DHT22;12616;52.470;13.436;2023-05-29T15:11:12;21.40;99.90
24436;DHT22;12616;52.470;13.436;2023-05-29T15:13:40;21.30;99.90
24436;DHT22;12616;52.470;13.436;2023-05-29T15:16:07;21.40;99.90
24436;DHT22;12616;52.470;13.436;2023-05-29T15:18:35;21.60;1.00
24436;DHT22;12616;52.470;13.436;2023-05-29T15:21:02;21.20;99.90
24436;DHT22;12616;52.470;13.436;2023-05-29T15:23:30;21.10;99.90
24436;DHT22;12616;52.470;13.436;2023-05-29T15:25:59;20.90;99.90
24436;DHT22;12616;52.470;13.436;2023-05-29T15:28:27;20.90;99.90
24436;DHT22;12616;52.470;13.436;2023-05-29T15:30:53;21.00;99.90
24436;DHT22;12616;52.470;13.436;2023-05-29T15:33:21;21.00;99.90
24436;DHT22;12616;52.470;13.436;2023-05-29T15:35:51;21.00;99.90
24436;DHT22;12616;52.470;13.436;2023-05-29T15:38:18;21.00;99.90
24436;DHT22;12616;52.470;13.436;2023-05-29T15:40:45;21.20;99.90
24436;DHT22;12616;52.470;13.436;2023-05-29T15:43:12;21.30;99.90
24436;DHT22;12616;52.470;13.436;2023-05-29T15:45:39;21.00;99.90
24436;DHT22;12616;52.470;13.436;2023-05-29T15:48:06;21.10;99.90
24436;DHT22;12616;52.470;13.436;2023-05-29T15:50:33;21.40;99.90
24436;DHT22;12616;52.470;13.436;2023-05-29T15:53:01;21.30;99.90
24436;DHT22;12616;52.470;13.436;2023-05-29T15:57:55;21.10;99.90
24436;DHT22;12616;52.470;13.436;2023-05-29T16:00:22;21.20;1.00
24436;DHT22;12616;52.470;13.436;2023-05-29T16:02:49;21.00;99.90
24436;DHT22;12616;52.470;13.436;2023-05-29T16:05:16;21.00;99.90
24436;DHT22;12616;52.470;13.436;2023-05-29T16:07:43;21.60;1.00
24436;DHT22;12616;52.470;13.436;2023-05-29T16:10:15;21.20;99.90
24436;DHT22;12616;52.470;13.436;2023-05-29T16:12:42;21.20;99.90
24436;DHT22;12616;52.470;13.436;2023-05-29T16:15:10;21.20;99.90
24436;DHT22;12616;52.470;13.436;2023-05-29T16:17:38;21.10;99.90
24436;DHT22;12616;52.470;13.436;2023-05-29T16:20:05;21.00;99.90
24436;DHT22;12616;52.470;13.436;2023-05-29T16:22:33;21.00;99.90
24436;DHT22;12616;52.470;13.436;2023-05-29T16:27:29;21.10;99.90